sensor_id;sensor_type;location;lat;lon;timestamp;pressure;altitude;pressure_sealevel;temperature;humidity
59315;BME280;46521;50.160;20.802;2023-07-28T00:08:03;99015.38;;;15.80;63.04
59315;BME280;46521;50.160;20.802;2023-07-28T00:18:04;99014.48;;;15.86;63.15
59315;BME280;46521;50.160;20.802;2023-07-28T00:28:06;99014.14;;;15.76;63.16
59315;BME280;46521;50.160;20.802;2023-07-28T00:38:08;98996.94;;;15.78;63.32
59315;BME280;46521;50.160;20.802;2023-07-28T00:48:14;98991.59;;;15.78;63.14
59315;BME280;46521;50.160;20.802;2023-07-28T00:58:16;98993.55;;;15.90;63.40
59315;BME280;46521;50.160;20.802;2023-07-28T01:08:30;98973.17;;;15.95;63.23
59315;BME280;46521;50.160;20.802;2023-07-28T01:18:34;98979.55;;;15.94;63.10
59315;BME280;46521;50.160;20.802;2023-07-28T01:28:36;98955.38;;;15.89;63.37
59315;BME280;46521;50.160;20.802;2023-07-28T01:38:38;98959.54;;;15.85;63.32
59315;BME280;46521;50.160;20.802;2023-07-28T01:48:40;98951.76;;;15.83;63.52
59315;BME280;46521;50.160;20.802;2023-07-28T01:58:41;98938.80;;;15.87;63.31
59315;BME280;46521;50.160;20.802;2023-07-28T02:08:43;98940.00;;;15.91;63.78
59315;BME280;46521;50.160;20.802;2023-07-28T02:18:44;98939.78;;;15.93;63.36
59315;BME280;46521;50.160;20.802;2023-07-28T02:28:45;98935.32;;;15.87;63.47
59315;BME280;46521;50.160;20.802;2023-07-28T02:38:47;98934.81;;;15.96;64.33
59315;BME280;46521;50.160;20.802;2023-07-28T02:48:48;98928.59;;;16.02;64.52
59315;BME280;46521;50.160;20.802;2023-07-28T02:58:50;98932.73;;;15.98;64.65
59315;BME280;46521;50.160;20.802;2023-07-28T03:08:51;98926.59;;;15.98;64.65
59315;BME280;46521;50.160;20.802;2023-07-28T03:18:53;98925.34;;;16.00;64.49
59315;BME280;46521;50.160;20.802;2023-07-28T03:28:55;98922.02;;;16.05;64.92
59315;BME280;46521;50.160;20.802;2023-07-28T03:38:56;98914.95;;;16.11;64.35
59315;BME280;46521;50.160;20.802;2023-07-28T03:48:58;98911.27;;;16.12;64.33
59315;BME280;46521;50.160;20.802;2023-07-28T03:59:01;98898.23;;;16.03;64.20
59315;BME280;46521;50.160;20.802;2023-07-28T04:09:02;98883.70;;;15.99;64.41
59315;BME280;46521;50.160;20.802;2023-07-28T04:19:04;98882.23;;;16.03;64.24
59315;BME280;46521;50.160;20.802;2023-07-28T04:29:05;98869.47;;;16.06;63.95
59315;BME280;46521;50.160;20.802;2023-07-28T04:39:07;98847.47;;;16.10;63.90
59315;BME280;46521;50.160;20.802;2023-07-28T04:49:08;98833.68;;;16.13;64.25
59315;BME280;46521;50.160;20.802;2023-07-28T04:59:10;98842.05;;;16.17;63.71
59315;BME280;46521;50.160;20.802;2023-07-28T05:09:11;98849.28;;;16.28;63.93
59315;BME280;46521;50.160;20.802;2023-07-28T05:19:13;98838.00;;;16.45;63.88
59315;BME280;46521;50.160;20.802;2023-07-28T05:29:14;98836.89;;;16.64;63.89
59315;BME280;46521;50.160;20.802;2023-07-28T05:39:16;98830.69;;;16.82;63.53
59315;BME280;46521;50.160;20.802;2023-07-28T05:49:17;98829.45;;;16.97;63.89
59315;BME280;46521;50.160;20.802;2023-07-28T05:59:19;98829.11;;;17.05;63.14
59315;BME280;46521;50.160;20.802;2023-07-28T06:09:20;98836.23;;;17.23;63.18
59315;BME280;46521;50.160;20.802;2023-07-28T06:19:21;98823.09;;;17.33;62.68
59315;BME280;46521;50.160;20.802;2023-07-28T06:29:25;98834.84;;;17.32;62.33
59315;BME280;46521;50.160;20.802;2023-07-28T06:39:26;98832.49;;;17.47;62.70
59315;BME280;46521;50.160;20.802;2023-07-28T06:49:28;98839.82;;;17.64;62.57
59315;BME280;46521;50.160;20.802;2023-07-28T06:59:29;98854.92;;;17.58;63.05
59315;BME280;46521;50.160;20.802;2023-07-28T07:09:31;98854.59;;;17.55;63.07
59315;BME280;46521;50.160;20.802;2023-07-28T07:19:32;98866.67;;;17.45;63.50
59315;BME280;46521;50.160;20.802;2023-07-28T07:29:34;98878.75;;;17.36;63.81
59315;BME280;46521;50.160;20.802;2023-07-28T07:39:35;98888.61;;;17.24;64.35
59315;BME280;46521;50.160;20.802;2023-07-28T07:49:37;98879.19;;;17.09;65.57
59315;BME280;46521;50.160;20.802;2023-07-28T07:59:38;98882.42;;;17.00;66.10
59315;BME280;46521;50.160;20.802;2023-07-28T08:09:40;98891.34;;;16.93;66.82
59315;BME280;46521;50.160;20.802;2023-07-28T08:19:42;98903.06;;;16.92;67.17
59315;BME280;46521;50.160;20.802;2023-07-28T08:29:43;98900.84;;;16.89;67.84
59315;BME280;46521;50.160;20.802;2023-07-28T08:39:45;98905.73;;;16.92;68.29
59315;BME280;46521;50.160;20.802;2023-07-28T08:49:46;98906.41;;;16.88;68.70
59315;BME280;46521;50.160;20.802;2023-07-28T08:59:48;98879.86;;;16.93;69.17
59315;BME280;46521;50.160;20.802;2023-07-28T09:09:59;98879.78;;;17.11;69.55
59315;BME280;46521;50.160;20.802;2023-07-28T09:20:02;98882.03;;;17.38;69.53
59315;BME280;46521;50.160;20.802;2023-07-28T09:30:04;98873.41;;;17.60;69.37
59315;BME280;46521;50.160;20.802;2023-07-28T09:40:13;98866.55;;;17.99;69.69
59315;BME280;46521;50.160;20.802;2023-07-28T09:50:16;98858.03;;;18.72;69.39
59315;BME280;46521;50.160;20.802;2023-07-28T10:00:20;98862.71;;;19.11;68.77
59315;BME280;46521;50.160;20.802;2023-07-28T10:10:22;98852.72;;;19.40;68.99
59315;BME280;46521;50.160;20.802;2023-07-28T10:30:51;98843.37;;;19.98;68.60
59315;BME280;46521;50.160;20.802;2023-07-28T10:41:04;98840.59;;;19.93;68.19
59315;BME280;46521;50.160;20.802;2023-07-28T10:51:06;98835.47;;;20.14;68.15
59315;BME280;46521;50.160;20.802;2023-07-28T11:01:07;98851.34;;;20.38;67.80
59315;BME280;46521;50.160;20.802;2023-07-28T11:11:10;98863.17;;;20.42;67.00
59315;BME280;46521;50.160;20.802;2023-07-28T11:21:11;98860.47;;;20.14;67.04
59315;BME280;46521;50.160;20.802;2023-07-28T11:31:13;98862.02;;;20.10;67.23
59315;BME280;46521;50.160;20.802;2023-07-28T11:41:14;98850.53;;;20.15;66.97
59315;BME280;46521;50.160;20.802;2023-07-28T11:51:16;98852.71;;;20.18;67.01
59315;BME280;46521;50.160;20.802;2023-07-28T12:01:18;98860.44;;;20.37;66.96
59315;BME280;46521;50.160;20.802;2023-07-28T12:11:20;98853.25;;;20.97;66.84
59315;BME280;46521;50.160;20.802;2023-07-28T12:21:24;98859.17;;;21.69;66.17
59315;BME280;46521;50.160;20.802;2023-07-28T12:31:26;98850.55;;;21.62;65.30
59315;BME280;46521;50.160;20.802;2023-07-28T12:41:27;98844.83;;;21.53;64.92
59315;BME280;46521;50.160;20.802;2023-07-28T12:51:29;98862.75;;;21.85;64.42
59315;BME280;46521;50.160;20.802;2023-07-28T13:01:31;98864.48;;;22.06;63.78
59315;BME280;46521;50.160;20.802;2023-07-28T13:11:32;98868.45;;;21.88;63.82
59315;BME280;46521;50.160;20.802;2023-07-28T13:21:33;98866.81;;;21.87;63.71
59315;BME280;46521;50.160;20.802;2023-07-28T13:31:35;98873.64;;;22.05;63.77
59315;BME280;46521;50.160;20.802;2023-07-28T13:41:37;98881.41;;;22.80;63.07
59315;BME280;46521;50.160;20.802;2023-07-28T13:51:38;98890.03;;;22.77;62.41
59315;BME280;46521;50.160;20.802;2023-07-28T14:01:40;98889.02;;;23.04;61.67
59315;BME280;46521;50.160;20.802;2023-07-28T14:11:42;98877.44;;;23.29;61.70
59315;BME280;46521;50.160;20.802;2023-07-28T14:21:43;98862.05;;;23.30;61.69
59315;BME280;46521;50.160;20.802;2023-07-28T14:31:44;98867.41;;;22.68;61.01
59315;BME280;46521;50.160;20.802;2023-07-28T14:41:46;98857.17;;;22.91;61.42
59315;BME280;46521;50.160;20.802;2023-07-28T14:51:47;98854.23;;;23.13;60.76
59315;BME280;46521;50.160;20.802;2023-07-28T15:01:49;98839.13;;;23.12;60.72
59315;BME280;46521;50.160;20.802;2023-07-28T15:11:50;98839.95;;;23.12;60.88
59315;BME280;46521;50.160;20.802;2023-07-28T15:21:52;98846.41;;;23.01;60.46
59315;BME280;46521;50.160;20.802;2023-07-28T15:31:53;98840.98;;;22.96;60.20
59315;BME280;46521;50.160;20.802;2023-07-28T15:41:55;98817.26;;;22.93;60.76
59315;BME280;46521;50.160;20.802;2023-07-28T15:51:57;98831.84;;;22.92;60.23
59315;BME280;46521;50.160;20.802;2023-07-28T16:01:58;98838.02;;;22.82;59.96
59315;BME280;46521;50.160;20.802;2023-07-28T16:12:00;98840.18;;;22.75;59.98
59315;BME280;46521;50.160;20.802;2023-07-28T16:22:01;98842.58;;;22.66;59.91
59315;BME280;46521;50.160;20.802;2023-07-28T16:32:03;98843.91;;;22.48;59.94
59315;BME280;46521;50.160;20.802;2023-07-28T16:42:07;98850.63;;;22.45;59.89
59315;BME280;46521;50.160;20.802;2023-07-28T16:52:10;98851.16;;;22.42;59.92
59315;BME280;46521;50.160;20.802;2023-07-28T17:02:11;98851.61;;;22.24;60.10
59315;BME280;46521;50.160;20.802;2023-07-28T17:12:12;98860.40;;;21.99;60.08
59315;BME280;46521;50.160;20.802;2023-07-28T17:22:14;98845.45;;;21.70;60.67
59315;BME280;46521;50.160;20.802;2023-07-28T17:32:15;98856.11;;;21.50;60.95
59315;BME280;46521;50.160;20.802;2023-07-28T17:42:17;98862.17;;;21.35;61.33
59315;BME280;46521;50.160;20.802;2023-07-28T17:52:20;98878.99;;;21.20;61.66
59315;BME280;46521;50.160;20.802;2023-07-28T18:02:21;98879.38;;;21.01;62.08
59315;BME280;46521;50.160;20.802;2023-07-28T18:12:22;98885.69;;;20.85;62.82
59315;BME280;46521;50.160;20.802;2023-07-28T18:22:24;98896.07;;;20.76;63.22
59315;BME280;46521;50.160;20.802;2023-07-28T18:32:25;98914.54;;;20.67;63.47
59315;BME280;46521;50.160;20.802;2023-07-28T18:42:27;98922.69;;;20.56;63.45
59315;BME280;46521;50.160;20.802;2023-07-28T18:52:29;98929.77;;;20.40;63.52
59315;BME280;46521;50.160;20.802;2023-07-28T19:02:30;98930.95;;;20.27;63.58
59315;BME280;46521;50.160;20.802;2023-07-28T19:12:32;98934.73;;;20.09;64.02
59315;BME280;46521;50.160;20.802;2023-07-28T19:22:33;98943.06;;;19.90;64.40
59315;BME280;46521;50.160;20.802;2023-07-28T19:32:35;98935.93;;;19.79;64.83
59315;BME280;46521;50.160;20.802;2023-07-28T19:42:36;98932.98;;;19.63;65.03
59315;BME280;46521;50.160;20.802;2023-07-28T19:52:38;98939.50;;;19.51;65.31
59315;BME280;46521;50.160;20.802;2023-07-28T20:02:40;98941.29;;;19.28;65.84
59315;BME280;46521;50.160;20.802;2023-07-28T20:12:42;98942.39;;;19.15;66.07
59315;BME280;46521;50.160;20.802;2023-07-28T20:22:44;98955.47;;;19.12;66.55
59315;BME280;46521;50.160;20.802;2023-07-28T20:32:46;98954.91;;;19.09;66.53
59315;BME280;46521;50.160;20.802;2023-07-28T20:42:48;98980.91;;;19.09;66.71
59315;BME280;46521;50.160;20.802;2023-07-28T20:52:49;98980.79;;;19.04;66.98
59315;BME280;46521;50.160;20.802;2023-07-28T21:02:51;98987.55;;;19.06;67.32
59315;BME280;46521;50.160;20.802;2023-07-28T21:12:52;98980.23;;;19.02;67.56
59315;BME280;46521;50.160;20.802;2023-07-28T21:22:54;98987.02;;;18.93;67.75
59315;BME280;46521;50.160;20.802;2023-07-28T21:33:03;99003.83;;;18.76;68.01
59315;BME280;46521;50.160;20.802;2023-07-28T21:43:05;99010.23;;;18.75;68.27
59315;BME280;46521;50.160;20.802;2023-07-28T21:53:07;99002.28;;;18.80;68.63
59315;BME280;46521;50.160;20.802;2023-07-28T22:03:08;99019.76;;;18.83;68.72
59315;BME280;46521;50.160;20.802;2023-07-28T22:13:10;99056.35;;;18.89;68.81
59315;BME280;46521;50.160;20.802;2023-07-28T22:23:11;99060.66;;;18.78;69.17
59315;BME280;46521;50.160;20.802;2023-07-28T22:33:13;99061.59;;;18.72;69.16
59315;BME280;46521;50.160;20.802;2023-07-28T22:43:15;99055.77;;;18.63;69.52
59315;BME280;46521;50.160;20.802;2023-07-28T22:53:17;99052.05;;;18.52;69.43
59315;BME280;46521;50.160;20.802;2023-07-28T23:03:18;99059.78;;;18.37;69.36
59315;BME280;46521;50.160;20.802;2023-07-28T23:13:20;99044.88;;;18.06;69.97
59315;BME280;46521;50.160;20.802;2023-07-28T23:23:22;99032.19;;;18.13;70.46
59315;BME280;46521;50.160;20.802;2023-07-28T23:33:24;99031.15;;;18.14;70.06
59315;BME280;46521;50.160;20.802;2023-07-28T23:43:26;99042.23;;;17.75;70.96
